Time;durP1;ratioP1;P1;durP2;ratioP2;P2;SDS_P1;SDS_P2;PMS_P1;PMS_P2;Temp;Humidity;BMP_temperature;BMP_pressure;BME280_temperature;BME280_humidity;BME280_pressure;Samples;Min_cycle;Max_cycle;Signal;HPM_P1;HPM_P2
2021/12/16 00:09:06;;;;;;;75.17;28.13;;;;;;;8.51;94.70;102964.16;5116370;28;20690;-73
2021/12/16 00:33:39;;;;;;;66.77;28.60;;;;;;;8.44;95.18;102973.69;5073347;28;20198;-74
2021/12/16 00:36:07;;;;;;;66.60;27.43;;;;;;;8.39;95.36;102990.19;5112130;28;20217;-77
2021/12/16 00:38:37;;;;;;;70.03;28.20;;;;;;;8.37;95.18;102977.16;5115304;28;20201;-77
2021/12/16 00:41:04;;;;;;;66.37;27.67;;;;;;;8.34;95.58;102979.69;5098554;28;20185;-74
2021/12/16 00:43:41;;;;;;;74.30;27.87;;;;;;;8.43;95.15;102982.41;5115863;28;20189;-74
2021/12/16 00:46:16;;;;;;;68.30;28.90;;;;;;;8.45;95.26;102975.44;5097799;28;20278;-74
2021/12/16 00:54:11;;;;;;;60.97;27.80;;;;;;;8.35;95.59;102981.47;5115643;28;20189;-73
2021/12/16 00:56:45;;;;;;;79.80;28.67;;;;;;;8.33;95.39;102980.56;5097158;28;20221;-73
2021/12/16 00:59:15;;;;;;;68.57;28.67;;;;;;;8.38;95.47;102980.63;5096903;28;20212;-74
2021/12/16 01:01:53;;;;;;;69.00;27.70;;;;;;;8.42;95.35;102984.97;5097182;28;20662;-74
2021/12/16 01:33:29;;;;;;;72.57;27.53;;;;;;;8.43;95.41;102985.00;5131613;27;20552;-74
2021/12/16 01:36:02;;;;;;;76.13;30.83;;;;;;;8.49;95.76;103003.28;5114769;28;20251;-74
2021/12/16 01:57:20;;;;;;;90.67;32.20;;;;;;;8.31;96.47;103013.63;5114707;28;20181;-73
2021/12/16 01:59:57;;;;;;;93.20;33.53;;;;;;;8.46;96.47;103011.13;5130188;27;20224;-73
2021/12/16 02:10:33;;;;;;;98.70;34.23;;;;;;;8.49;96.11;103018.09;5095688;28;20299;-73
2021/12/16 02:30:22;;;;;;;96.43;33.43;;;;;;;8.58;95.99;103027.72;5129584;27;20239;-73
2021/12/16 02:35:33;;;;;;;96.53;34.13;;;;;;;8.55;95.49;103024.19;5113676;28;20189;-73
2021/12/16 02:38:03;;;;;;;102.80;33.07;;;;;;;8.53;95.73;103022.47;5095673;28;20524;-73
2021/12/16 02:40:33;;;;;;;103.43;32.90;;;;;;;8.59;95.40;103029.47;5095440;28;20180;-74
2021/12/16 02:43:29;;;;;;;90.23;30.40;;;;;;;8.47;95.64;103028.53;5095330;28;20189;-74
2021/12/16 02:48:35;;;;;;;96.17;33.37;;;;;;;8.50;95.41;103022.44;5129387;28;20308;-74
2021/12/16 02:51:04;;;;;;;103.30;34.13;;;;;;;8.45;95.57;103032.88;5095347;28;20189;-74
2021/12/16 02:53:32;;;;;;;93.23;32.97;;;;;;;8.48;95.49;103017.22;5129953;28;20276;-74
2021/12/16 02:55:59;;;;;;;94.97;34.10;;;;;;;8.51;95.29;103027.69;5095396;28;20197;-73
2021/12/16 02:58:26;;;;;;;102.57;34.40;;;;;;;8.44;95.66;103022.44;5095898;28;20212;-73
2021/12/16 03:01:00;;;;;;;113.43;34.00;;;;;;;8.43;95.49;103024.16;5114642;28;20176;-74
2021/12/16 03:03:28;;;;;;;100.97;32.40;;;;;;;8.50;95.43;103025.94;5100166;28;20256;-73
2021/12/16 03:05:56;;;;;;;95.53;31.83;;;;;;;8.58;94.93;103033.81;5117741;28;20643;-73
2021/12/16 03:08:23;;;;;;;92.97;33.13;;;;;;;8.46;95.36;103024.16;5117876;28;20189;-74
2021/12/16 03:11:40;;;;;;;98.03;34.27;;;;;;;8.49;95.36;103029.41;5117343;28;20181;-74
2021/12/16 03:17:20;;;;;;;106.97;34.77;;;;;;;8.46;95.51;103029.41;5117537;28;20658;-74
2021/12/16 03:19:24;;;;;;;101.47;34.60;;;;;;;8.48;95.51;103032.00;5092001;28;20307;-76
2021/12/16 03:21:52;;;;;;;90.57;33.10;;;;;;;8.39;95.63;103025.00;5117176;28;20189;-77
2021/12/16 03:37:27;;;;;;;105.53;33.60;;;;;;;8.35;95.08;103028.44;5117374;28;20197;-74
2021/12/16 03:40:06;;;;;;;93.87;33.77;;;;;;;8.37;95.25;103029.34;5116821;28;20705;-74
2021/12/16 03:42:37;;;;;;;97.47;33.00;;;;;;;8.36;95.45;103032.84;5098738;28;20192;-74
2021/12/16 03:46:25;;;;;;;92.50;32.60;;;;;;;8.32;95.51;103038.00;5132880;27;20635;-74
2021/12/16 03:48:07;;;;;;;101.07;34.10;;;;;;;8.33;95.50;103032.78;5098419;28;20196;-74
2021/12/16 03:50:34;;;;;;;95.97;32.60;;;;;;;8.30;95.61;103040.59;5098435;28;20220;-74
2021/12/16 03:53:03;;;;;;;89.83;31.83;;;;;;;8.35;95.46;103048.44;5098322;28;20193;-76
2021/12/16 03:55:30;;;;;;;83.47;30.17;;;;;;;8.34;95.52;103044.09;5132392;27;20191;-76
2021/12/16 03:57:57;;;;;;;83.90;30.57;;;;;;;8.31;95.63;103050.16;5132553;27;20212;-76
2021/12/16 04:00:32;;;;;;;93.73;32.67;;;;;;;8.33;95.79;103048.44;5098296;28;20211;-76
2021/12/16 04:03:01;;;;;;;102.37;33.50;;;;;;;8.25;96.22;103051.00;5098141;28;20184;-76
2021/12/16 04:05:32;;;;;;;100.93;34.17;;;;;;;8.25;96.29;103047.53;5098169;28;20631;-78
2021/12/16 04:08:04;;;;;;;93.87;32.43;;;;;;;8.26;96.39;103049.25;5099117;28;20181;-78
2021/12/16 04:11:07;;;;;;;100.53;33.57;;;;;;;8.26;96.18;103054.47;5097991;28;20197;-77
2021/12/16 04:13:58;;;;;;;100.43;33.73;;;;;;;8.31;96.37;103049.31;5097439;28;20300;-77
2021/12/16 04:16:44;;;;;;;94.83;32.20;;;;;;;8.28;96.22;103056.22;5098368;28;20233;-77
2021/12/16 04:19:16;;;;;;;116.33;33.83;;;;;;;8.31;96.20;103050.16;5098283;28;20208;-77
2021/12/16 04:21:48;;;;;;;94.80;34.37;;;;;;;8.31;96.22;103059.75;5097689;28;20203;-77
2021/12/16 04:24:15;;;;;;;102.63;34.93;;;;;;;8.36;95.89;103050.22;5116586;28;20180;-77
2021/12/16 04:26:44;;;;;;;97.43;32.57;;;;;;;8.32;96.01;103056.25;5098423;28;20211;-77
2021/12/16 04:29:12;;;;;;;102.70;34.23;;;;;;;8.28;96.22;103065.78;5097510;28;20639;-77
2021/12/16 04:31:41;;;;;;;100.67;33.87;;;;;;;8.24;96.20;103064.03;5097459;28;20238;-77
2021/12/16 04:34:08;;;;;;;95.20;33.20;;;;;;;8.24;96.01;103071.88;5097814;28;20199;-77
2021/12/16 04:36:38;;;;;;;95.20;34.00;;;;;;;8.28;95.62;103077.09;5097350;28;20236;-77
2021/12/16 04:39:10;;;;;;;83.80;31.73;;;;;;;8.24;96.04;103069.28;5097274;28;20232;-77
2021/12/16 04:41:37;;;;;;;91.87;33.53;;;;;;;8.29;95.97;103067.56;5080969;28;20234;-76
2021/12/16 04:44:08;;;;;;;94.10;32.83;;;;;;;8.28;95.88;103071.00;5097305;28;20280;-76
2021/12/16 04:46:35;;;;;;;90.57;32.87;;;;;;;8.19;96.11;103065.75;5097519;28;20185;-76
2021/12/16 04:49:05;;;;;;;82.47;31.53;;;;;;;8.32;95.82;103066.69;5097515;28;20217;-76
2021/12/16 04:51:39;;;;;;;89.87;33.27;;;;;;;8.32;95.79;103064.97;5097693;28;20204;-76
2021/12/16 04:54:11;;;;;;;91.97;32.70;;;;;;;8.26;95.37;103068.41;5097042;28;20284;-76
2021/12/16 04:56:38;;;;;;;84.67;30.67;;;;;;;8.25;95.90;103057.97;5096988;28;20208;-76
2021/12/16 04:59:13;;;;;;;93.50;32.23;;;;;;;8.22;95.45;103058.81;5132026;27;20205;-77
2021/12/16 05:01:45;;;;;;;84.23;31.17;;;;;;;8.16;95.70;103050.94;5097176;28;20280;-77
2021/12/16 05:04:14;;;;;;;93.13;32.13;;;;;;;8.09;95.75;103046.56;5097280;28;20185;-74
2021/12/16 05:06:41;;;;;;;92.00;30.93;;;;;;;8.15;95.90;103064.00;5080169;28;20178;-73
2021/12/16 05:09:19;;;;;;;87.20;32.20;;;;;;;8.13;95.73;103058.75;5096769;28;20201;-74
2021/12/16 05:11:47;;;;;;;96.77;31.97;;;;;;;8.02;95.69;103065.66;5096869;28;20192;-73
2021/12/16 05:14:18;;;;;;;106.60;33.20;;;;;;;7.95;95.46;103056.91;5130854;27;20614;-73
2021/12/16 05:16:48;;;;;;;82.50;32.90;;;;;;;7.93;95.74;103053.41;5096699;28;20234;-77
2021/12/16 05:19:15;;;;;;;89.97;32.40;;;;;;;7.88;95.64;103059.44;5096838;28;20209;-77
2021/12/16 05:21:53;;;;;;;101.73;33.60;;;;;;;7.88;95.91;103065.53;5096553;28;20570;-77
2021/12/16 05:24:27;;;;;;;93.90;34.13;;;;;;;7.85;96.23;103067.22;5095702;28;20194;-77
2021/12/16 05:27:03;;;;;;;84.50;31.40;;;;;;;7.87;95.92;103076.84;5096474;28;20185;-77
2021/12/16 05:29:30;;;;;;;90.30;31.60;;;;;;;7.78;95.86;103074.13;5097292;28;20239;-76
2021/12/16 05:32:00;;;;;;;104.47;38.70;;;;;;;7.75;96.34;103076.72;5096478;28;20430;-76
2021/12/16 05:34:27;;;;;;;95.80;34.00;;;;;;;7.81;96.03;103078.53;5096352;28;20196;-76
2021/12/16 05:36:54;;;;;;;103.27;35.07;;;;;;;7.79;96.39;103088.06;5096126;28;20205;-76
2021/12/16 05:39:23;;;;;;;95.67;33.77;;;;;;;7.89;96.34;103093.38;5096201;28;20212;-73
2021/12/16 05:42:04;;;;;;;93.87;32.93;;;;;;;7.85;96.39;103093.31;5130645;27;20670;-73
2021/12/16 05:44:31;;;;;;;88.33;32.97;;;;;;;7.82;96.59;103099.38;5096396;28;20185;-76
2021/12/16 05:46:57;;;;;;;84.47;32.33;;;;;;;7.82;96.61;103102.00;5096236;28;20189;-76
2021/12/16 05:49:24;;;;;;;86.30;34.30;;;;;;;7.87;96.69;103094.22;5130110;27;20725;-76
2021/12/16 05:51:51;;;;;;;96.60;34.50;;;;;;;7.86;96.41;103103.78;5095948;28;20607;-76
2021/12/16 05:54:20;;;;;;;107.63;33.93;;;;;;;7.92;96.43;103109.03;5095921;28;20192;-76
2021/12/16 05:56:51;;;;;;;102.70;36.63;;;;;;;7.91;96.26;103104.66;5095863;28;20208;-76
2021/12/16 05:59:20;;;;;;;96.03;35.07;;;;;;;7.93;96.09;103108.19;5130119;27;20278;-76
2021/12/16 06:01:50;;;;;;;88.63;33.37;;;;;;;7.95;96.02;103114.28;5096080;28;20680;-76
2021/12/16 06:04:22;;;;;;;88.77;33.10;;;;;;;7.84;96.53;103121.13;5096280;28;20674;-76
2021/12/16 06:06:52;;;;;;;97.07;34.93;;;;;;;7.74;96.33;103114.09;5095668;28;20215;-76
2021/12/16 06:09:18;;;;;;;85.23;32.67;;;;;;;7.69;96.51;103127.09;5130126;27;20567;-76
2021/12/16 06:11:46;;;;;;;88.47;32.67;;;;;;;7.71;96.99;103119.28;5114459;28;20189;-77
2021/12/16 06:14:22;;;;;;;77.67;30.23;;;;;;;7.73;96.85;103109.75;5114078;28;20170;-73
2021/12/16 06:27:56;;;;;;;102.13;36.77;;;;;;;7.67;96.97;103123.59;5114354;28;20219;-73
2021/12/16 06:30:26;;;;;;;98.70;34.10;;;;;;;7.73;97.05;103135.81;5113593;28;20614;-74
2021/12/16 06:32:55;;;;;;;102.90;34.17;;;;;;;7.70;97.03;103133.16;5113984;28;20176;-73
2021/12/16 06:35:22;;;;;;;109.87;35.70;;;;;;;7.64;97.15;103127.88;5113936;27;20189;-73
2021/12/16 06:37:50;;;;;;;117.70;36.13;;;;;;;7.75;97.05;103126.28;5102216;28;20208;-73
2021/12/16 06:40:27;;;;;;;103.70;38.47;;;;;;;7.62;97.30;103124.41;5102863;28;20574;-73
2021/12/16 06:43:14;;;;;;;125.23;37.23;;;;;;;7.70;97.32;103126.22;5120718;28;20274;-73
2021/12/16 06:45:45;;;;;;;118.77;36.53;;;;;;;7.79;97.27;103145.44;5102946;28;20276;-74
2021/12/16 06:48:17;;;;;;;127.43;37.57;;;;;;;7.79;97.40;103135.88;5120655;28;20648;-76
2021/12/16 06:50:50;;;;;;;113.80;39.87;;;;;;;7.83;97.32;103144.59;5120936;28;20177;-76
2021/12/16 06:53:34;;;;;;;128.10;40.03;;;;;;;7.77;97.23;103142.81;5120526;28;20185;-76
2021/12/16 06:56:12;;;;;;;118.87;38.87;;;;;;;7.65;97.51;103150.53;5120574;28;20623;-76
2021/12/16 06:58:47;;;;;;;120.77;40.37;;;;;;;7.79;97.58;103154.13;5120425;28;20219;-74
2021/12/16 07:01:32;;;;;;;114.10;38.20;;;;;;;7.83;97.41;103150.69;5120630;28;20177;-74
2021/12/16 07:03:59;;;;;;;125.80;40.43;;;;;;;7.76;97.93;103156.69;5120299;28;20184;-74
2021/12/16 07:06:29;;;;;;;115.23;39.13;;;;;;;7.85;97.71;103164.59;5120178;28;20198;-74
2021/12/16 07:09:01;;;;;;;108.67;39.10;;;;;;;7.81;97.72;103181.09;5120302;28;20554;-74
2021/12/16 07:11:28;;;;;;;125.93;40.30;;;;;;;7.88;97.90;103172.47;5120570;28;20192;-74
2021/12/16 07:13:59;;;;;;;127.07;41.63;;;;;;;7.86;97.83;103182.03;5120154;28;20237;-74
2021/12/16 07:16:29;;;;;;;124.03;38.20;;;;;;;7.96;97.61;103182.97;5120153;28;20173;-74
2021/12/16 07:18:58;;;;;;;112.70;39.70;;;;;;;7.98;97.53;103192.56;5120390;28;20220;-74
2021/12/16 07:21:24;;;;;;;128.70;43.87;;;;;;;7.92;97.55;103189.88;5120099;28;20196;-73
2021/12/16 07:23:51;;;;;;;150.17;43.90;;;;;;;8.02;97.61;103197.81;5120257;28;20234;-73
2021/12/16 07:26:18;;;;;;;141.47;43.50;;;;;;;8.03;97.45;103196.97;5120368;28;20193;-76
2021/12/16 07:28:44;;;;;;;142.10;43.47;;;;;;;8.03;97.34;103199.56;5120370;28;20208;-75
2021/12/16 07:31:11;;;;;;;153.53;44.37;;;;;;;7.94;97.61;103203.84;5120585;28;20185;-75
2021/12/16 07:33:38;;;;;;;135.57;41.17;;;;;;;7.92;97.82;103199.44;5119921;28;20185;-75
2021/12/16 07:36:05;;;;;;;138.53;43.80;;;;;;;7.95;97.75;103197.75;5120534;28;20165;-75
2021/12/16 07:38:31;;;;;;;138.63;44.50;;;;;;;7.93;97.81;103203.81;5119986;28;20220;-75
2021/12/16 07:40:58;;;;;;;154.10;43.60;;;;;;;8.04;97.74;103201.31;5120437;28;20182;-76
2021/12/16 07:43:41;;;;;;;144.43;44.83;;;;;;;7.97;97.79;103208.19;5120036;28;20189;-76
2021/12/16 07:46:09;;;;;;;119.93;42.37;;;;;;;7.93;97.85;103206.41;5120450;28;20187;-76
2021/12/16 07:48:35;;;;;;;148.63;41.83;;;;;;;7.98;97.92;103194.28;5116259;28;20205;-76
2021/12/16 07:51:04;;;;;;;128.50;41.20;;;;;;;8.06;97.46;103203.06;5116889;28;20579;-76
2021/12/16 07:53:31;;;;;;;128.70;41.57;;;;;;;8.02;97.44;103206.53;5116822;28;20201;-76
2021/12/16 07:55:59;;;;;;;126.60;41.77;;;;;;;8.04;97.12;103216.97;5116494;28;20192;-76
2021/12/16 07:58:26;;;;;;;123.43;41.20;;;;;;;8.12;96.99;103210.94;5116276;28;20698;-75
2021/12/16 08:00:59;;;;;;;104.10;38.77;;;;;;;8.03;97.16;103215.22;5116477;28;20174;-73
2021/12/16 08:03:27;;;;;;;116.23;37.70;;;;;;;7.97;97.12;103219.50;5116274;28;20192;-73
2021/12/16 08:05:58;;;;;;;132.73;41.53;;;;;;;7.91;97.31;103223.78;5117065;28;20181;-73
2021/12/16 08:08:25;;;;;;;105.23;37.77;;;;;;;7.94;97.23;103227.31;5116620;28;20165;-73
2021/12/16 08:10:54;;;;;;;107.20;36.40;;;;;;;8.01;96.98;103236.09;5116210;28;20185;-73
2021/12/16 08:13:20;;;;;;;118.73;36.53;;;;;;;7.95;97.15;103238.63;5116724;28;20662;-73
2021/12/16 08:15:47;;;;;;;94.57;33.67;;;;;;;7.94;97.25;103239.50;5116658;28;20185;-73
2021/12/16 08:18:13;;;;;;;97.13;34.60;;;;;;;7.81;97.61;103250.66;5115910;28;20212;-73
2021/12/16 08:20:40;;;;;;;101.47;34.07;;;;;;;7.80;97.51;103270.63;5116167;28;20262;-73
2021/12/16 08:23:07;;;;;;;91.57;30.97;;;;;;;7.85;97.33;103268.06;5116524;28;20652;-73
2021/12/16 08:25:34;;;;;;;89.87;32.40;;;;;;;7.72;97.60;103270.56;5116478;28;20195;-73
2021/12/16 08:28:03;;;;;;;90.30;32.07;;;;;;;7.71;97.95;103281.84;5116455;28;20185;-73
2021/12/16 08:30:34;;;;;;;106.97;35.67;;;;;;;7.69;97.87;103283.53;5115674;28;20215;-73
2021/12/16 08:33:05;;;;;;;112.43;34.77;;;;;;;7.67;98.00;103282.66;5116374;28;20576;-75
2021/12/16 08:35:32;;;;;;;106.10;39.17;;;;;;;7.70;98.01;103290.50;5115778;28;20177;-75
2021/12/16 08:37:59;;;;;;;113.27;38.73;;;;;;;7.69;98.13;103298.31;5115652;28;20197;-75
2021/12/16 08:40:25;;;;;;;126.87;41.53;;;;;;;7.69;97.97;103303.53;5115910;28;20705;-73
2021/12/16 08:42:52;;;;;;;127.10;44.60;;;;;;;7.62;98.25;103309.53;5116144;28;20189;-73
2021/12/16 08:45:24;;;;;;;128.27;46.27;;;;;;;7.65;98.09;103312.19;5097353;28;20190;-73
2021/12/16 08:47:51;;;;;;;120.60;41.67;;;;;;;7.63;98.09;103309.53;5115810;28;20756;-73
2021/12/16 08:50:21;;;;;;;135.80;45.07;;;;;;;7.63;98.21;103303.44;5115408;28;20304;-73
2021/12/16 08:52:48;;;;;;;157.83;48.87;;;;;;;7.62;98.30;103306.91;5115966;28;20177;-73
2021/12/16 08:55:15;;;;;;;149.33;51.43;;;;;;;7.63;98.07;103308.66;5115336;28;20245;-73
2021/12/16 08:57:42;;;;;;;151.57;50.03;;;;;;;7.55;98.25;103315.50;5115204;28;20216;-73
2021/12/16 09:00:14;;;;;;;146.47;47.37;;;;;;;7.63;98.30;103308.66;5115633;28;20205;-73
2021/12/16 09:02:40;;;;;;;139.87;45.60;;;;;;;7.56;98.39;103317.25;5115242;28;20184;-73
2021/12/16 09:05:08;;;;;;;142.30;41.83;;;;;;;7.58;98.43;103305.13;5115211;28;20185;-75
2021/12/16 09:07:34;;;;;;;135.27;42.23;;;;;;;7.54;98.26;103319.84;5115608;28;20192;-73
2021/12/16 09:10:03;;;;;;;121.53;40.93;;;;;;;7.57;98.32;103311.19;5115462;28;20212;-73
2021/12/16 09:15:05;;;;;;;129.37;38.77;;;;;;;7.69;97.98;103308.75;5115167;28;20653;-73
2021/12/16 09:17:32;;;;;;;119.77;39.87;;;;;;;7.78;97.90;103297.53;5115122;28;20174;-75
2021/12/16 09:19:59;;;;;;;133.80;42.83;;;;;;;7.70;97.89;103306.16;5114925;28;20261;-75
2021/12/16 09:22:26;;;;;;;119.27;41.10;;;;;;;7.82;97.90;103309.78;5096977;28;20262;-75
2021/12/16 09:24:56;;;;;;;163.83;45.50;;;;;;;7.83;97.74;103304.56;5115071;28;20192;-73
2021/12/16 09:27:24;;;;;;;148.60;45.97;;;;;;;7.87;97.73;103313.31;5114943;28;20181;-73
2021/12/16 09:29:50;;;;;;;135.47;44.07;;;;;;;7.83;97.66;103316.72;5114774;28;20204;-73
2021/12/16 09:32:17;;;;;;;146.60;45.67;;;;;;;7.73;98.38;103316.63;5114631;28;20193;-72
2021/12/16 09:34:45;;;;;;;135.77;43.73;;;;;;;7.75;98.69;103316.66;5115206;28;20176;-75
2021/12/16 09:37:12;;;;;;;124.77;42.20;;;;;;;7.86;98.47;103322.88;5114661;28;20193;-73
2021/12/16 09:39:39;;;;;;;151.33;45.97;;;;;;;7.87;98.54;103324.63;5114357;28;20220;-73
2021/12/16 09:42:09;;;;;;;136.50;43.93;;;;;;;8.00;97.79;103325.63;5114458;28;20185;-73
2021/12/16 09:44:36;;;;;;;101.53;36.83;;;;;;;7.94;97.76;103329.06;5114413;28;20188;-73
2021/12/16 09:47:06;;;;;;;109.73;36.50;;;;;;;7.90;98.16;103329.88;5096130;28;20673;-73
2021/12/16 09:49:33;;;;;;;109.83;35.57;;;;;;;7.90;98.14;103331.59;5114844;28;20209;-73
2021/12/16 09:52:01;;;;;;;117.47;34.80;;;;;;;7.90;98.15;103329.88;5095999;28;20197;-72
2021/12/16 09:54:30;;;;;;;95.10;33.67;;;;;;;7.86;97.87;103338.53;5114187;28;20193;-72
2021/12/16 09:56:58;;;;;;;105.43;33.53;;;;;;;7.94;97.93;103331.66;5114430;28;20193;-72
2021/12/16 09:59:28;;;;;;;100.13;33.07;;;;;;;7.93;97.72;103327.31;5113898;28;20612;-73
2021/12/16 10:01:58;;;;;;;106.90;32.57;;;;;;;7.95;97.39;103333.41;5114600;28;20165;-73
2021/12/16 10:04:34;;;;;;;90.93;31.97;;;;;;;7.90;97.49;103334.22;5114909;28;20209;-73
2021/12/16 10:07:06;;;;;;;83.07;29.10;;;;;;;7.99;97.50;103335.19;5114811;28;20359;-73
2021/12/16 10:09:33;;;;;;;79.93;28.47;;;;;;;8.09;97.00;103337.91;5113999;28;20689;-73
2021/12/16 10:12:06;;;;;;;80.33;28.73;;;;;;;8.10;96.75;103329.22;5113445;28;20192;-73
2021/12/16 10:14:48;;;;;;;81.93;29.07;;;;;;;8.08;96.82;103317.91;5114233;28;20165;-73
2021/12/16 10:17:25;;;;;;;88.63;31.47;;;;;;;8.02;97.17;103326.53;5114089;28;20169;-75
2021/12/16 10:20:13;;;;;;;77.03;29.20;;;;;;;7.99;97.26;103329.09;5113966;28;20212;-75
2021/12/16 10:22:42;;;;;;;85.17;30.50;;;;;;;8.00;97.36;103331.75;5113859;28;20218;-77
2021/12/16 10:25:22;;;;;;;77.13;29.23;;;;;;;7.94;97.22;103331.66;5113763;28;20189;-76
2021/12/16 10:27:59;;;;;;;75.23;29.20;;;;;;;7.94;97.58;103333.41;5114307;28;20626;-73
2021/12/16 10:30:51;;;;;;;81.60;30.20;;;;;;;8.02;97.42;103334.38;5113922;28;20250;-75
2021/12/16 10:33:33;;;;;;;76.90;28.47;;;;;;;7.99;97.06;103344.75;5095711;28;20185;-75
2021/12/16 10:36:23;;;;;;;68.47;27.00;;;;;;;8.03;97.42;103341.31;5114035;28;20210;-75
2021/12/16 10:39:12;;;;;;;73.17;27.67;;;;;;;8.00;97.33;103339.56;5095745;28;20259;-73
2021/12/16 10:41:48;;;;;;;84.43;29.03;;;;;;;8.14;96.94;103342.31;5114290;28;20181;-73
2021/12/16 10:44:19;;;;;;;98.70;31.53;;;;;;;8.03;96.95;103345.66;5114245;28;20185;-75
2021/12/16 10:46:49;;;;;;;75.67;27.97;;;;;;;8.08;96.91;103341.38;5113954;28;20172;-75
2021/12/16 10:49:19;;;;;;;85.07;28.47;;;;;;;8.11;97.04;103344.03;5113878;28;20209;-75
2021/12/16 10:51:49;;;;;;;78.10;28.90;;;;;;;8.20;96.79;103345.00;5113513;28;20188;-75
2021/12/16 10:54:17;;;;;;;83.57;29.97;;;;;;;8.15;96.60;103338.00;5113487;28;20693;-75
2021/12/16 10:56:55;;;;;;;77.73;29.70;;;;;;;8.22;96.52;103345.03;5113715;28;20581;-75
2021/12/16 10:59:35;;;;;;;81.53;29.13;;;;;;;8.23;96.43;103349.38;5113646;28;20216;-75
2021/12/16 11:02:06;;;;;;;76.07;28.90;;;;;;;8.26;96.60;103345.06;5113479;28;20184;-75
2021/12/16 11:04:40;;;;;;;80.47;29.63;;;;;;;8.39;96.15;103340.88;5114465;28;20539;-75
2021/12/16 11:07:13;;;;;;;79.37;29.50;;;;;;;8.31;96.30;103347.72;5113498;28;20177;-75
2021/12/16 11:09:57;;;;;;;67.43;27.63;;;;;;;8.42;96.25;103335.69;5113656;28;20675;-75
2021/12/16 11:12:26;;;;;;;96.03;29.33;;;;;;;8.42;96.23;103340.91;5113423;28;20169;-75
2021/12/16 11:15:00;;;;;;;79.00;29.97;;;;;;;8.33;96.35;103346.00;5113320;28;20174;-75
2021/12/16 11:17:32;;;;;;;83.53;28.97;;;;;;;8.43;96.26;103347.91;5113344;28;20181;-75
2021/12/16 11:20:01;;;;;;;87.97;29.17;;;;;;;8.47;95.90;103343.56;5113461;28;20655;-75
2021/12/16 11:22:34;;;;;;;80.17;29.20;;;;;;;8.45;95.56;103346.16;5113225;28;20242;-75
2021/12/16 11:25:22;;;;;;;80.53;29.57;;;;;;;8.49;95.35;103337.47;5117459;28;20170;-73
2021/12/16 11:27:54;;;;;;;78.23;29.87;;;;;;;8.50;95.80;103344.50;5117722;28;20169;-73
2021/12/16 11:30:37;;;;;;;103.87;34.33;;;;;;;8.54;95.76;103341.03;5117072;28;20193;-72
2021/12/16 11:33:17;;;;;;;83.73;31.93;;;;;;;8.61;95.49;103347.19;5117521;28;20523;-75
2021/12/16 11:35:43;;;;;;;90.77;34.53;;;;;;;8.60;95.26;103337.59;5132878;27;20185;-73
2021/12/16 11:38:21;;;;;;;91.00;35.73;;;;;;;8.57;95.52;103332.34;5117054;28;20552;-75
2021/12/16 11:41:00;;;;;;;98.07;34.60;;;;;;;8.68;95.04;103335.06;5117414;28;20169;-77
2021/12/16 11:43:36;;;;;;;96.97;34.27;;;;;;;8.75;94.92;103335.13;5117872;28;20184;-76
2021/12/16 11:46:10;;;;;;;97.93;30.30;;;;;;;8.73;95.15;103330.75;5116989;28;20173;-76
2021/12/16 11:48:40;;;;;;;97.13;32.03;;;;;;;8.68;94.73;103328.09;5116620;28;20193;-76
2021/12/16 11:51:17;;;;;;;106.23;33.47;;;;;;;8.73;94.99;103325.53;5116911;28;20532;-76
2021/12/16 11:53:54;;;;;;;121.37;34.67;;;;;;;8.67;94.80;103328.09;5117360;28;20193;-76
2021/12/16 11:56:44;;;;;;;133.57;40.37;;;;;;;8.75;94.95;103318.56;5117250;28;20524;-76
2021/12/16 11:59:20;;;;;;;163.73;42.93;;;;;;;8.74;94.92;103329.88;5098653;28;20248;-74
2021/12/16 12:01:48;;;;;;;156.93;44.10;;;;;;;8.74;95.05;103327.28;5117007;28;20180;-73
2021/12/16 12:04:15;;;;;;;188.30;46.47;;;;;;;8.90;94.70;103334.38;5116371;28;20184;-73
2021/12/16 12:06:45;;;;;;;179.33;46.30;;;;;;;8.84;95.07;103329.09;5116270;28;20611;-73
2021/12/16 12:09:11;;;;;;;177.60;43.67;;;;;;;8.85;94.48;103335.19;5116121;28;20212;-74
2021/12/16 12:11:42;;;;;;;161.10;43.20;;;;;;;8.86;94.76;103335.22;5116549;28;20185;-74
2021/12/16 12:14:12;;;;;;;162.17;40.40;;;;;;;8.87;94.72;103339.59;5116449;28;20181;-74
2021/12/16 12:16:42;;;;;;;170.47;41.67;;;;;;;8.91;94.70;103343.06;5116113;28;20185;-74
2021/12/16 12:19:18;;;;;;;163.03;42.93;;;;;;;8.87;94.55;103350.03;5115932;28;20225;-74
2021/12/16 12:21:57;;;;;;;168.97;42.47;;;;;;;8.86;94.65;103350.00;5116084;28;20226;-74
2021/12/16 12:24:37;;;;;;;153.07;42.63;;;;;;;8.87;94.55;103349.16;5116575;28;20177;-74
2021/12/16 12:27:15;;;;;;;167.10;45.50;;;;;;;8.90;94.97;103346.56;5116099;28;20234;-74
2021/12/16 12:29:48;;;;;;;151.63;41.57;;;;;;;8.96;94.52;103352.72;5116049;28;20212;-73
2021/12/16 12:32:41;;;;;;;170.83;44.73;;;;;;;8.88;94.23;103357.00;5116011;28;20188;-73
2021/12/16 12:35:10;;;;;;;177.63;45.27;;;;;;;8.85;94.45;103341.28;5100455;28;20196;-76
2021/12/16 12:37:40;;;;;;;149.67;40.90;;;;;;;9.04;94.06;103352.78;5115814;28;20247;-74
2021/12/16 12:40:24;;;;;;;158.43;40.60;;;;;;;9.01;93.78;103350.16;5115655;28;20209;-73
2021/12/16 12:42:52;;;;;;;149.73;40.07;;;;;;;9.00;93.74;103351.88;5115652;28;20522;-73
2021/12/16 12:45:24;;;;;;;136.20;38.37;;;;;;;8.97;93.86;103351.84;5115569;28;20195;-73
2021/12/16 12:47:54;;;;;;;158.53;38.40;;;;;;;8.99;93.77;103352.72;5115805;28;20242;-73
2021/12/16 12:50:29;;;;;;;152.47;41.70;;;;;;;9.00;93.84;103346.66;5115524;28;20213;-73
2021/12/16 12:52:59;;;;;;;168.87;43.77;;;;;;;8.93;94.20;103352.69;5115618;28;20188;-73
2021/12/16 12:55:31;;;;;;;165.57;43.47;;;;;;;8.99;93.72;103360.56;5115666;28;20174;-73
2021/12/16 12:58:11;;;;;;;131.93;40.13;;;;;;;8.98;93.81;103358.81;5115382;28;20188;-73
2021/12/16 13:01:02;;;;;;;132.60;40.83;;;;;;;9.00;93.59;103364.94;5115579;28;20197;-73
2021/12/16 13:03:36;;;;;;;143.50;39.80;;;;;;;9.03;93.46;103364.09;5115537;28;20236;-73
2021/12/16 13:06:06;;;;;;;167.97;44.13;;;;;;;9.03;93.73;103356.25;5115747;28;20234;-73
2021/12/16 13:08:37;;;;;;;120.20;40.20;;;;;;;9.06;93.29;103354.50;5115476;28;20197;-73
2021/12/16 13:11:09;;;;;;;154.30;41.57;;;;;;;9.09;93.42;103351.94;5115384;28;20177;-73
2021/12/16 13:13:46;;;;;;;146.97;44.73;;;;;;;9.09;93.15;103351.06;5115582;28;20243;-73
2021/12/16 13:16:37;;;;;;;171.63;45.80;;;;;;;8.99;93.41;103360.56;5115653;28;20526;-74
2021/12/16 13:26:10;;;;;;;154.23;47.00;;;;;;;9.08;93.51;103344.97;5115403;28;20185;-74
2021/12/16 13:34:59;;;;;;;142.77;44.13;;;;;;;9.08;93.54;103336.25;5115193;28;20166;-74
2021/12/16 13:37:32;;;;;;;170.97;43.80;;;;;;;9.15;93.90;103339.78;5114843;28;20185;-74
2021/12/16 13:40:09;;;;;;;163.60;45.77;;;;;;;8.98;93.50;103340.53;5114410;28;20258;-73
2021/12/16 13:42:53;;;;;;;144.97;44.73;;;;;;;9.21;93.25;103347.66;5114499;28;20180;-71
2021/12/16 13:45:26;;;;;;;161.20;45.80;;;;;;;9.17;93.00;103344.16;5096836;28;20177;-71
2021/12/16 14:01:52;;;;;;;146.10;40.87;;;;;;;9.12;93.00;103361.53;5114230;28;20177;-75
2021/12/16 14:07:40;;;;;;;164.70;42.80;;;;;;;9.10;93.35;103358.91;5114006;28;20181;-75
2021/12/16 14:10:17;;;;;;;151.97;41.23;;;;;;;9.12;93.42;103355.44;5114595;28;20205;-74
2021/12/16 14:25:24;;;;;;;142.60;42.67;;;;;;;9.10;92.68;103343.22;5114121;28;20166;-76
2021/12/16 14:41:50;;;;;;;145.53;43.03;;;;;;;9.03;93.52;103356.25;5114036;28;20178;-76
2021/12/16 14:49:30;;;;;;;147.20;41.47;;;;;;;9.04;92.92;103353.63;5113518;28;20615;-75
2021/12/16 14:51:58;;;;;;;127.03;38.03;;;;;;;9.07;92.85;103356.28;5113852;28;20185;-75
2021/12/16 14:54:24;;;;;;;144.33;41.13;;;;;;;8.97;92.73;103369.25;5113607;28;20166;-75
2021/12/16 14:56:57;;;;;;;150.83;42.27;;;;;;;8.96;92.93;103365.78;5114740;28;20234;-75
2021/12/16 14:59:26;;;;;;;150.20;41.53;;;;;;;8.83;93.75;103374.38;5117595;28;20693;-75